sensor_id;sensor_type;location;lat;lon;timestamp;P1;durP1;ratioP1;P2;durP2;ratioP2
60502;SDS011;51448;51.660;5.824;2023-04-03T00:02:19;10.38;;;7.22;;
60502;SDS011;51448;51.660;5.824;2023-04-03T00:04:47;14.40;;;8.57;;
60502;SDS011;51448;51.660;5.824;2023-04-03T00:07:15;13.18;;;8.75;;
60502;SDS011;51448;51.660;5.824;2023-04-03T00:09:42;12.25;;;8.38;;
60502;SDS011;51448;51.660;5.824;2023-04-03T00:12:10;12.63;;;8.45;;
60502;SDS011;51448;51.660;5.824;2023-04-03T00:14:38;14.50;;;9.02;;
60502;SDS011;51448;51.660;5.824;2023-04-03T00:17:05;12.85;;;7.72;;
60502;SDS011;51448;51.660;5.824;2023-04-03T00:19:33;9.10;;;6.90;;
60502;SDS011;51448;51.660;5.824;2023-04-03T00:22:01;11.38;;;7.82;;
60502;SDS011;51448;51.660;5.824;2023-04-03T00:24:28;12.63;;;7.70;;
60502;SDS011;51448;51.660;5.824;2023-04-03T00:26:56;9.65;;;7.20;;
60502;SDS011;51448;51.660;5.824;2023-04-03T00:29:23;11.18;;;7.50;;
60502;SDS011;51448;51.660;5.824;2023-04-03T00:31:51;10.02;;;7.22;;
60502;SDS011;51448;51.660;5.824;2023-04-03T00:34:19;9.80;;;6.68;;
60502;SDS011;51448;51.660;5.824;2023-04-03T00:36:46;12.57;;;7.53;;
60502;SDS011;51448;51.660;5.824;2023-04-03T00:39:14;14.02;;;8.15;;
60502;SDS011;51448;51.660;5.824;2023-04-03T00:41:42;10.27;;;7.35;;
60502;SDS011;51448;51.660;5.824;2023-04-03T00:44:23;10.80;;;7.10;;
60502;SDS011;51448;51.660;5.824;2023-04-03T00:47:13;12.82;;;7.75;;
60502;SDS011;51448;51.660;5.824;2023-04-03T00:49:44;11.18;;;7.32;;
60502;SDS011;51448;51.660;5.824;2023-04-03T00:52:14;10.00;;;7.18;;
60502;SDS011;51448;51.660;5.824;2023-04-03T00:54:48;12.13;;;6.60;;
60502;SDS011;51448;51.660;5.824;2023-04-03T00:57:22;10.20;;;6.22;;
60502;SDS011;51448;51.660;5.824;2023-04-03T00:59:51;12.98;;;5.68;;
60502;SDS011;51448;51.660;5.824;2023-04-03T01:02:27;9.85;;;5.38;;
60502;SDS011;51448;51.660;5.824;2023-04-03T01:04:55;7.05;;;4.60;;
60502;SDS011;51448;51.660;5.824;2023-04-03T01:07:23;9.75;;;4.63;;
60502;SDS011;51448;51.660;5.824;2023-04-03T01:10:00;8.50;;;4.10;;
60502;SDS011;51448;51.660;5.824;2023-04-03T01:12:38;8.48;;;4.80;;
60502;SDS011;51448;51.660;5.824;2023-04-03T01:15:15;8.40;;;4.22;;
60502;SDS011;51448;51.660;5.824;2023-04-03T01:17:48;11.00;;;4.78;;
60502;SDS011;51448;51.660;5.824;2023-04-03T01:20:31;6.72;;;3.80;;
60502;SDS011;51448;51.660;5.824;2023-04-03T01:23:25;7.20;;;4.03;;
60502;SDS011;51448;51.660;5.824;2023-04-03T01:25:59;7.85;;;4.20;;
60502;SDS011;51448;51.660;5.824;2023-04-03T01:28:28;9.73;;;4.32;;
60502;SDS011;51448;51.660;5.824;2023-04-03T01:31:14;7.93;;;3.97;;
60502;SDS011;51448;51.660;5.824;2023-04-03T01:33:48;9.52;;;4.65;;
60502;SDS011;51448;51.660;5.824;2023-04-03T01:36:21;10.23;;;4.63;;
60502;SDS011;51448;51.660;5.824;2023-04-03T01:38:53;9.65;;;4.65;;
60502;SDS011;51448;51.660;5.824;2023-04-03T01:41:22;9.77;;;4.22;;
60502;SDS011;51448;51.660;5.824;2023-04-03T01:43:53;9.25;;;4.40;;
60502;SDS011;51448;51.660;5.824;2023-04-03T01:46:21;7.93;;;4.22;;
60502;SDS011;51448;51.660;5.824;2023-04-03T01:48:49;8.48;;;4.75;;
60502;SDS011;51448;51.660;5.824;2023-04-03T01:51:17;7.07;;;4.22;;
60502;SDS011;51448;51.660;5.824;2023-04-03T01:53:45;10.13;;;4.15;;
60502;SDS011;51448;51.660;5.824;2023-04-03T01:56:13;7.60;;;4.05;;
60502;SDS011;51448;51.660;5.824;2023-04-03T01:58:40;8.50;;;4.20;;
60502;SDS011;51448;51.660;5.824;2023-04-03T02:01:08;9.95;;;4.20;;
60502;SDS011;51448;51.660;5.824;2023-04-03T02:03:36;8.52;;;3.85;;
60502;SDS011;51448;51.660;5.824;2023-04-03T02:06:03;7.40;;;4.15;;
60502;SDS011;51448;51.660;5.824;2023-04-03T02:08:31;8.60;;;4.10;;
60502;SDS011;51448;51.660;5.824;2023-04-03T02:10:59;7.40;;;3.97;;
60502;SDS011;51448;51.660;5.824;2023-04-03T02:13:27;6.88;;;3.75;;
60502;SDS011;51448;51.660;5.824;2023-04-03T02:15:54;8.07;;;3.33;;
60502;SDS011;51448;51.660;5.824;2023-04-03T02:18:22;6.97;;;3.22;;
60502;SDS011;51448;51.660;5.824;2023-04-03T02:20:49;9.52;;;3.30;;
60502;SDS011;51448;51.660;5.824;2023-04-03T02:23:17;7.38;;;3.50;;
60502;SDS011;51448;51.660;5.824;2023-04-03T02:25:44;6.70;;;3.28;;
60502;SDS011;51448;51.660;5.824;2023-04-03T02:28:12;7.78;;;3.10;;
60502;SDS011;51448;51.660;5.824;2023-04-03T02:30:40;10.20;;;3.72;;
60502;SDS011;51448;51.660;5.824;2023-04-03T02:33:07;6.18;;;2.80;;
60502;SDS011;51448;51.660;5.824;2023-04-03T02:35:35;6.72;;;3.55;;
60502;SDS011;51448;51.660;5.824;2023-04-03T02:38:04;8.27;;;3.83;;
60502;SDS011;51448;51.660;5.824;2023-04-03T02:40:33;9.80;;;3.50;;
60502;SDS011;51448;51.660;5.824;2023-04-03T02:43:01;8.60;;;3.25;;
60502;SDS011;51448;51.660;5.824;2023-04-03T02:45:29;6.38;;;3.10;;
60502;SDS011;51448;51.660;5.824;2023-04-03T02:47:56;7.22;;;3.00;;
60502;SDS011;51448;51.660;5.824;2023-04-03T02:50:24;7.40;;;2.95;;
60502;SDS011;51448;51.660;5.824;2023-04-03T02:52:52;8.43;;;3.10;;
60502;SDS011;51448;51.660;5.824;2023-04-03T02:55:19;7.00;;;3.05;;
60502;SDS011;51448;51.660;5.824;2023-04-03T02:57:49;8.65;;;3.10;;
60502;SDS011;51448;51.660;5.824;2023-04-03T03:00:17;7.60;;;3.03;;
60502;SDS011;51448;51.660;5.824;2023-04-03T03:02:45;6.65;;;3.13;;
60502;SDS011;51448;51.660;5.824;2023-04-03T03:05:13;6.95;;;3.22;;
60502;SDS011;51448;51.660;5.824;2023-04-03T03:07:41;7.38;;;3.20;;
60502;SDS011;51448;51.660;5.824;2023-04-03T03:10:09;7.63;;;2.90;;
60502;SDS011;51448;51.660;5.824;2023-04-03T03:12:37;6.93;;;3.00;;
60502;SDS011;51448;51.660;5.824;2023-04-03T03:15:04;6.93;;;3.50;;
60502;SDS011;51448;51.660;5.824;2023-04-03T03:17:33;7.57;;;3.20;;
60502;SDS011;51448;51.660;5.824;2023-04-03T03:20:01;10.05;;;3.28;;
60502;SDS011;51448;51.660;5.824;2023-04-03T03:22:29;7.10;;;3.10;;
60502;SDS011;51448;51.660;5.824;2023-04-03T03:24:59;7.40;;;2.80;;
60502;SDS011;51448;51.660;5.824;2023-04-03T03:27:26;6.82;;;2.90;;
60502;SDS011;51448;51.660;5.824;2023-04-03T03:29:54;7.63;;;2.80;;
60502;SDS011;51448;51.660;5.824;2023-04-03T03:32:21;6.78;;;2.75;;
60502;SDS011;51448;51.660;5.824;2023-04-03T03:34:49;9.90;;;3.03;;
60502;SDS011;51448;51.660;5.824;2023-04-03T03:37:17;8.02;;;2.90;;
60502;SDS011;51448;51.660;5.824;2023-04-03T03:39:45;7.35;;;2.38;;
60502;SDS011;51448;51.660;5.824;2023-04-03T03:42:12;7.85;;;3.08;;
60502;SDS011;51448;51.660;5.824;2023-04-03T03:44:40;7.70;;;2.50;;
60502;SDS011;51448;51.660;5.824;2023-04-03T03:47:08;7.88;;;2.60;;
60502;SDS011;51448;51.660;5.824;2023-04-03T03:49:38;8.38;;;2.65;;
60502;SDS011;51448;51.660;5.824;2023-04-03T03:52:06;7.82;;;2.75;;
60502;SDS011;51448;51.660;5.824;2023-04-03T03:54:34;8.98;;;2.70;;
60502;SDS011;51448;51.660;5.824;2023-04-03T03:57:01;7.03;;;2.65;;
60502;SDS011;51448;51.660;5.824;2023-04-03T03:59:30;6.30;;;2.38;;
60502;SDS011;51448;51.660;5.824;2023-04-03T04:01:58;10.77;;;2.80;;
60502;SDS011;51448;51.660;5.824;2023-04-03T04:04:26;8.38;;;3.00;;
60502;SDS011;51448;51.660;5.824;2023-04-03T04:06:54;4.75;;;2.22;;
60502;SDS011;51448;51.660;5.824;2023-04-03T04:09:22;7.88;;;2.72;;
60502;SDS011;51448;51.660;5.824;2023-04-03T04:11:50;6.70;;;2.33;;
60502;SDS011;51448;51.660;5.824;2023-04-03T04:14:18;5.50;;;2.28;;
60502;SDS011;51448;51.660;5.824;2023-04-03T04:16:48;7.45;;;2.50;;
60502;SDS011;51448;51.660;5.824;2023-04-03T04:19:21;7.45;;;3.05;;
60502;SDS011;51448;51.660;5.824;2023-04-03T04:21:49;7.15;;;2.83;;
60502;SDS011;51448;51.660;5.824;2023-04-03T04:24:17;9.13;;;2.70;;
60502;SDS011;51448;51.660;5.824;2023-04-03T04:26:46;9.23;;;2.67;;
60502;SDS011;51448;51.660;5.824;2023-04-03T04:29:16;7.55;;;2.80;;
60502;SDS011;51448;51.660;5.824;2023-04-03T04:31:47;8.60;;;2.90;;
60502;SDS011;51448;51.660;5.824;2023-04-03T04:34:14;6.75;;;2.30;;
60502;SDS011;51448;51.660;5.824;2023-04-03T04:36:42;6.03;;;2.58;;
60502;SDS011;51448;51.660;5.824;2023-04-03T04:39:10;5.78;;;2.60;;
60502;SDS011;51448;51.660;5.824;2023-04-03T04:41:38;8.18;;;2.63;;
60502;SDS011;51448;51.660;5.824;2023-04-03T04:44:06;7.85;;;2.78;;
60502;SDS011;51448;51.660;5.824;2023-04-03T04:46:35;8.38;;;2.83;;
60502;SDS011;51448;51.660;5.824;2023-04-03T04:49:04;7.13;;;2.40;;
60502;SDS011;51448;51.660;5.824;2023-04-03T04:51:33;6.47;;;2.60;;
60502;SDS011;51448;51.660;5.824;2023-04-03T04:54:11;7.60;;;2.50;;
60502;SDS011;51448;51.660;5.824;2023-04-03T04:56:39;7.18;;;2.58;;
60502;SDS011;51448;51.660;5.824;2023-04-03T04:59:08;6.03;;;2.40;;
60502;SDS011;51448;51.660;5.824;2023-04-03T05:01:35;7.57;;;2.45;;
60502;SDS011;51448;51.660;5.824;2023-04-03T05:04:08;7.32;;;2.67;;
60502;SDS011;51448;51.660;5.824;2023-04-03T05:06:38;7.10;;;2.72;;
60502;SDS011;51448;51.660;5.824;2023-04-03T05:09:11;7.82;;;2.65;;
60502;SDS011;51448;51.660;5.824;2023-04-03T05:11:41;9.38;;;2.72;;
60502;SDS011;51448;51.660;5.824;2023-04-03T05:14:11;7.13;;;2.45;;
60502;SDS011;51448;51.660;5.824;2023-04-03T05:16:39;7.18;;;2.30;;
60502;SDS011;51448;51.660;5.824;2023-04-03T05:19:07;7.25;;;2.55;;
60502;SDS011;51448;51.660;5.824;2023-04-03T05:21:35;7.20;;;2.67;;
60502;SDS011;51448;51.660;5.824;2023-04-03T05:24:08;8.40;;;2.72;;
60502;SDS011;51448;51.660;5.824;2023-04-03T05:26:39;8.88;;;2.45;;
60502;SDS011;51448;51.660;5.824;2023-04-03T05:29:09;6.18;;;2.50;;
60502;SDS011;51448;51.660;5.824;2023-04-03T05:31:37;8.35;;;2.70;;
60502;SDS011;51448;51.660;5.824;2023-04-03T05:34:07;7.35;;;3.05;;
60502;SDS011;51448;51.660;5.824;2023-04-03T05:36:36;7.80;;;2.50;;
60502;SDS011;51448;51.660;5.824;2023-04-03T05:39:07;6.53;;;2.53;;
60502;SDS011;51448;51.660;5.824;2023-04-03T05:41:38;7.90;;;2.40;;
60502;SDS011;51448;51.660;5.824;2023-04-03T05:44:07;7.88;;;2.75;;
60502;SDS011;51448;51.660;5.824;2023-04-03T05:46:35;7.45;;;2.72;;
60502;SDS011;51448;51.660;5.824;2023-04-03T05:49:06;6.40;;;2.78;;
60502;SDS011;51448;51.660;5.824;2023-04-03T05:51:36;6.38;;;2.40;;
60502;SDS011;51448;51.660;5.824;2023-04-03T05:54:20;6.88;;;2.88;;
60502;SDS011;51448;51.660;5.824;2023-04-03T05:56:56;8.68;;;2.80;;
60502;SDS011;51448;51.660;5.824;2023-04-03T05:59:25;7.53;;;3.13;;
60502;SDS011;51448;51.660;5.824;2023-04-03T06:01:56;9.52;;;3.30;;
60502;SDS011;51448;51.660;5.824;2023-04-03T06:04:24;8.63;;;3.10;;
60502;SDS011;51448;51.660;5.824;2023-04-03T06:06:53;7.90;;;2.92;;
60502;SDS011;51448;51.660;5.824;2023-04-03T06:09:27;10.07;;;2.85;;
60502;SDS011;51448;51.660;5.824;2023-04-03T06:11:58;9.75;;;3.28;;
60502;SDS011;51448;51.660;5.824;2023-04-03T06:14:28;8.65;;;2.92;;
60502;SDS011;51448;51.660;5.824;2023-04-03T06:16:56;8.88;;;3.47;;
60502;SDS011;51448;51.660;5.824;2023-04-03T06:19:24;9.05;;;3.60;;
60502;SDS011;51448;51.660;5.824;2023-04-03T06:21:55;7.70;;;3.25;;
60502;SDS011;51448;51.660;5.824;2023-04-03T06:24:24;9.18;;;3.80;;
60502;SDS011;51448;51.660;5.824;2023-04-03T06:26:52;7.07;;;3.20;;
60502;SDS011;51448;51.660;5.824;2023-04-03T06:29:20;8.30;;;3.03;;
60502;SDS011;51448;51.660;5.824;2023-04-03T06:31:49;6.72;;;2.70;;
60502;SDS011;51448;51.660;5.824;2023-04-03T06:34:18;7.78;;;2.75;;
60502;SDS011;51448;51.660;5.824;2023-04-03T06:36:46;5.85;;;2.30;;
60502;SDS011;51448;51.660;5.824;2023-04-03T06:39:14;10.15;;;3.08;;
60502;SDS011;51448;51.660;5.824;2023-04-03T06:41:48;6.70;;;2.45;;
60502;SDS011;51448;51.660;5.824;2023-04-03T06:44:22;6.93;;;2.78;;
60502;SDS011;51448;51.660;5.824;2023-04-03T06:46:50;5.95;;;2.50;;
60502;SDS011;51448;51.660;5.824;2023-04-03T06:49:18;8.27;;;2.60;;
60502;SDS011;51448;51.660;5.824;2023-04-03T06:51:46;6.18;;;2.65;;
60502;SDS011;51448;51.660;5.824;2023-04-03T06:54:14;6.07;;;2.33;;
60502;SDS011;51448;51.660;5.824;2023-04-03T06:56:42;8.63;;;2.80;;
60502;SDS011;51448;51.660;5.824;2023-04-03T06:59:10;10.98;;;2.83;;
60502;SDS011;51448;51.660;5.824;2023-04-03T07:01:42;6.78;;;2.20;;
60502;SDS011;51448;51.660;5.824;2023-04-03T07:04:10;8.02;;;2.17;;
60502;SDS011;51448;51.660;5.824;2023-04-03T07:06:38;7.63;;;2.75;;
60502;SDS011;51448;51.660;5.824;2023-04-03T07:09:06;6.75;;;2.33;;
60502;SDS011;51448;51.660;5.824;2023-04-03T07:11:35;6.75;;;2.72;;
60502;SDS011;51448;51.660;5.824;2023-04-03T07:14:03;8.00;;;2.42;;
60502;SDS011;51448;51.660;5.824;2023-04-03T07:16:30;7.47;;;2.40;;
60502;SDS011;51448;51.660;5.824;2023-04-03T07:18:59;8.18;;;2.53;;
60502;SDS011;51448;51.660;5.824;2023-04-03T07:21:27;10.02;;;2.97;;
60502;SDS011;51448;51.660;5.824;2023-04-03T07:23:55;8.23;;;2.63;;
60502;SDS011;51448;51.660;5.824;2023-04-03T07:26:23;6.75;;;2.33;;
60502;SDS011;51448;51.660;5.824;2023-04-03T07:28:50;7.85;;;2.63;;
60502;SDS011;51448;51.660;5.824;2023-04-03T07:31:18;6.72;;;2.40;;
60502;SDS011;51448;51.660;5.824;2023-04-03T07:33:49;7.75;;;2.40;;
60502;SDS011;51448;51.660;5.824;2023-04-03T07:36:24;7.50;;;2.22;;
60502;SDS011;51448;51.660;5.824;2023-04-03T07:38:51;6.88;;;2.50;;
60502;SDS011;51448;51.660;5.824;2023-04-03T07:41:19;9.20;;;2.60;;
60502;SDS011;51448;51.660;5.824;2023-04-03T07:43:47;7.55;;;2.42;;
60502;SDS011;51448;51.660;5.824;2023-04-03T07:46:16;9.23;;;2.25;;
60502;SDS011;51448;51.660;5.824;2023-04-03T07:48:44;10.10;;;2.35;;
60502;SDS011;51448;51.660;5.824;2023-04-03T07:51:12;6.35;;;2.05;;
60502;SDS011;51448;51.660;5.824;2023-04-03T07:53:40;5.88;;;2.25;;
60502;SDS011;51448;51.660;5.824;2023-04-03T07:56:08;7.15;;;2.00;;
60502;SDS011;51448;51.660;5.824;2023-04-03T07:58:36;7.45;;;2.05;;
60502;SDS011;51448;51.660;5.824;2023-04-03T08:01:04;7.07;;;1.77;;
60502;SDS011;51448;51.660;5.824;2023-04-03T08:03:32;7.05;;;2.05;;
60502;SDS011;51448;51.660;5.824;2023-04-03T08:06:03;9.00;;;2.33;;
60502;SDS011;51448;51.660;5.824;2023-04-03T08:08:37;6.05;;;1.92;;
60502;SDS011;51448;51.660;5.824;2023-04-03T08:11:05;6.60;;;1.92;;
60502;SDS011;51448;51.660;5.824;2023-04-03T08:13:35;6.10;;;1.77;;
60502;SDS011;51448;51.660;5.824;2023-04-03T08:16:09;8.13;;;2.00;;
60502;SDS011;51448;51.660;5.824;2023-04-03T08:18:45;6.03;;;1.75;;
60502;SDS011;51448;51.660;5.824;2023-04-03T08:21:12;6.30;;;1.80;;
60502;SDS011;51448;51.660;5.824;2023-04-03T08:23:40;5.13;;;1.67;;
60502;SDS011;51448;51.660;5.824;2023-04-03T08:26:09;4.57;;;1.33;;
60502;SDS011;51448;51.660;5.824;2023-04-03T08:28:39;8.60;;;2.00;;
60502;SDS011;51448;51.660;5.824;2023-04-03T08:31:09;7.07;;;1.88;;
60502;SDS011;51448;51.660;5.824;2023-04-03T08:33:42;5.82;;;1.73;;
60502;SDS011;51448;51.660;5.824;2023-04-03T08:36:29;4.97;;;1.40;;
60502;SDS011;51448;51.660;5.824;2023-04-03T08:38:57;7.68;;;1.70;;
60502;SDS011;51448;51.660;5.824;2023-04-03T08:44:22;5.15;;;1.70;;
60502;SDS011;51448;51.660;5.824;2023-04-03T08:46:59;6.28;;;1.30;;
60502;SDS011;51448;51.660;5.824;2023-04-03T08:49:45;4.28;;;1.08;;
60502;SDS011;51448;51.660;5.824;2023-04-03T08:52:44;5.22;;;1.50;;
60502;SDS011;51448;51.660;5.824;2023-04-03T08:55:25;4.45;;;0.93;;
60502;SDS011;51448;51.660;5.824;2023-04-03T08:58:21;6.05;;;1.17;;
60502;SDS011;51448;51.660;5.824;2023-04-03T09:00:55;3.80;;;1.08;;
60502;SDS011;51448;51.660;5.824;2023-04-03T09:03:29;4.13;;;1.25;;
60502;SDS011;51448;51.660;5.824;2023-04-03T09:06:02;2.95;;;0.93;;
60502;SDS011;51448;51.660;5.824;2023-04-03T09:08:43;5.05;;;1.10;;
60502;SDS011;51448;51.660;5.824;2023-04-03T09:11:27;3.35;;;0.90;;
60502;SDS011;51448;51.660;5.824;2023-04-03T09:14:12;3.63;;;1.02;;
60502;SDS011;51448;51.660;5.824;2023-04-03T09:22:57;2.47;;;0.60;;
60502;SDS011;51448;51.660;5.824;2023-04-03T09:25:27;3.78;;;0.68;;
60502;SDS011;51448;51.660;5.824;2023-04-03T09:28:02;3.35;;;0.80;;
60502;SDS011;51448;51.660;5.824;2023-04-03T09:30:37;3.85;;;0.90;;
60502;SDS011;51448;51.660;5.824;2023-04-03T09:33:06;1.38;;;0.50;;
60502;SDS011;51448;51.660;5.824;2023-04-03T09:35:35;2.08;;;0.60;;
60502;SDS011;51448;51.660;5.824;2023-04-03T09:38:18;2.63;;;0.40;;
60502;SDS011;51448;51.660;5.824;2023-04-03T09:40:50;2.90;;;0.63;;
60502;SDS011;51448;51.660;5.824;2023-04-03T09:43:53;1.80;;;0.50;;
60502;SDS011;51448;51.660;5.824;2023-04-03T09:46:28;2.78;;;0.50;;
60502;SDS011;51448;51.660;5.824;2023-04-03T09:49:04;1.77;;;0.45;;
60502;SDS011;51448;51.660;5.824;2023-04-03T09:51:36;3.08;;;0.63;;
60502;SDS011;51448;51.660;5.824;2023-04-03T09:57:10;1.42;;;0.43;;
60502;SDS011;51448;51.660;5.824;2023-04-03T09:59:43;2.70;;;0.60;;
60502;SDS011;51448;51.660;5.824;2023-04-03T10:02:36;2.85;;;0.70;;
60502;SDS011;51448;51.660;5.824;2023-04-03T10:10:43;2.03;;;0.50;;
60502;SDS011;51448;51.660;5.824;2023-04-03T10:13:18;2.97;;;0.55;;
60502;SDS011;51448;51.660;5.824;2023-04-03T10:16:08;1.83;;;0.50;;
60502;SDS011;51448;51.660;5.824;2023-04-03T10:21:48;3.40;;;0.80;;
60502;SDS011;51448;51.660;5.824;2023-04-03T10:27:18;4.85;;;1.63;;
60502;SDS011;51448;51.660;5.824;2023-04-03T10:33:23;2.55;;;0.50;;
60502;SDS011;51448;51.660;5.824;2023-04-03T10:38:48;1.45;;;0.50;;
60502;SDS011;51448;51.660;5.824;2023-04-03T10:48:11;3.80;;;1.10;;
60502;SDS011;51448;51.660;5.824;2023-04-03T10:51:03;2.15;;;0.50;;
60502;SDS011;51448;51.660;5.824;2023-04-03T10:53:39;2.22;;;0.50;;
60502;SDS011;51448;51.660;5.824;2023-04-03T10:59:48;2.00;;;0.70;;
60502;SDS011;51448;51.660;5.824;2023-04-03T11:02:31;4.03;;;0.88;;
60502;SDS011;51448;51.660;5.824;2023-04-03T11:05:08;2.60;;;0.55;;
60502;SDS011;51448;51.660;5.824;2023-04-03T11:08:53;2.08;;;0.68;;
60502;SDS011;51448;51.660;5.824;2023-04-03T11:11:31;2.85;;;0.55;;
60502;SDS011;51448;51.660;5.824;2023-04-03T11:17:45;2.15;;;0.68;;
60502;SDS011;51448;51.660;5.824;2023-04-03T11:19:52;3.17;;;0.80;;
60502;SDS011;51448;51.660;5.824;2023-04-03T11:22:48;2.93;;;0.60;;
60502;SDS011;51448;51.660;5.824;2023-04-03T11:25:25;3.50;;;0.98;;
60502;SDS011;51448;51.660;5.824;2023-04-03T11:27:58;5.07;;;1.10;;
60502;SDS011;51448;51.660;5.824;2023-04-03T11:36:10;2.90;;;0.60;;
60502;SDS011;51448;51.660;5.824;2023-04-03T11:39:07;4.95;;;0.82;;
60502;SDS011;51448;51.660;5.824;2023-04-03T11:41:55;3.33;;;1.10;;
60502;SDS011;51448;51.660;5.824;2023-04-03T11:44:42;3.67;;;1.00;;
60502;SDS011;51448;51.660;5.824;2023-04-03T11:47:10;3.85;;;0.85;;
60502;SDS011;51448;51.660;5.824;2023-04-03T11:50:00;3.42;;;0.90;;
60502;SDS011;51448;51.660;5.824;2023-04-03T12:05:54;2.30;;;0.87;;
60502;SDS011;51448;51.660;5.824;2023-04-03T12:16:26;4.45;;;0.85;;
60502;SDS011;51448;51.660;5.824;2023-04-03T12:19:27;3.22;;;0.77;;
60502;SDS011;51448;51.660;5.824;2023-04-03T12:22:12;5.05;;;0.98;;
60502;SDS011;51448;51.660;5.824;2023-04-03T12:24:48;4.55;;;0.88;;
60502;SDS011;51448;51.660;5.824;2023-04-03T12:30:18;4.68;;;1.17;;
60502;SDS011;51448;51.660;5.824;2023-04-03T12:36:13;3.45;;;0.82;;
60502;SDS011;51448;51.660;5.824;2023-04-03T12:41:54;4.70;;;1.00;;
60502;SDS011;51448;51.660;5.824;2023-04-03T12:45:01;4.80;;;1.17;;
60502;SDS011;51448;51.660;5.824;2023-04-03T12:47:46;5.82;;;1.17;;
60502;SDS011;51448;51.660;5.824;2023-04-03T12:50:30;4.00;;;1.10;;
60502;SDS011;51448;51.660;5.824;2023-04-03T12:53:01;4.40;;;1.02;;
60502;SDS011;51448;51.660;5.824;2023-04-03T12:55:38;2.90;;;1.00;;
60502;SDS011;51448;51.660;5.824;2023-04-03T12:58:13;2.95;;;0.90;;
60502;SDS011;51448;51.660;5.824;2023-04-03T13:01:03;5.45;;;1.48;;
60502;SDS011;51448;51.660;5.824;2023-04-03T13:03:39;2.88;;;1.10;;
60502;SDS011;51448;51.660;5.824;2023-04-03T13:06:14;2.28;;;0.90;;
60502;SDS011;51448;51.660;5.824;2023-04-03T13:08:52;4.15;;;1.20;;
60502;SDS011;51448;51.660;5.824;2023-04-03T13:11:33;5.05;;;1.10;;
60502;SDS011;51448;51.660;5.824;2023-04-03T13:14:17;4.53;;;1.25;;
60502;SDS011;51448;51.660;5.824;2023-04-03T13:17:03;3.83;;;0.98;;
60502;SDS011;51448;51.660;5.824;2023-04-03T13:19:41;5.15;;;1.10;;
60502;SDS011;51448;51.660;5.824;2023-04-03T13:22:34;3.45;;;1.10;;
60502;SDS011;51448;51.660;5.824;2023-04-03T13:25:07;5.80;;;1.20;;
60502;SDS011;51448;51.660;5.824;2023-04-03T13:27:40;4.63;;;1.27;;
60502;SDS011;51448;51.660;5.824;2023-04-03T13:30:20;4.20;;;1.20;;
60502;SDS011;51448;51.660;5.824;2023-04-03T13:32:58;3.90;;;1.30;;
60502;SDS011;51448;51.660;5.824;2023-04-03T13:40:51;4.82;;;1.20;;
60502;SDS011;51448;51.660;5.824;2023-04-03T13:43:28;3.50;;;1.10;;
60502;SDS011;51448;51.660;5.824;2023-04-03T13:48:38;4.95;;;1.13;;
60502;SDS011;51448;51.660;5.824;2023-04-03T13:56:35;4.72;;;1.10;;
60502;SDS011;51448;51.660;5.824;2023-04-03T14:04:32;4.60;;;1.30;;
60502;SDS011;51448;51.660;5.824;2023-04-03T14:07:13;4.93;;;1.10;;
60502;SDS011;51448;51.660;5.824;2023-04-03T14:12:16;3.88;;;1.13;;
60502;SDS011;51448;51.660;5.824;2023-04-03T14:15:06;4.95;;;1.40;;
60502;SDS011;51448;51.660;5.824;2023-04-03T14:17:45;3.63;;;1.30;;
60502;SDS011;51448;51.660;5.824;2023-04-03T14:20:15;3.50;;;1.15;;
60502;SDS011;51448;51.660;5.824;2023-04-03T14:22:47;3.92;;;1.17;;
60502;SDS011;51448;51.660;5.824;2023-04-03T14:25:16;4.32;;;1.13;;
60502;SDS011;51448;51.660;5.824;2023-04-03T14:27:46;5.50;;;1.48;;
60502;SDS011;51448;51.660;5.824;2023-04-03T14:30:24;6.40;;;1.20;;
60502;SDS011;51448;51.660;5.824;2023-04-03T14:32:55;3.78;;;1.05;;
60502;SDS011;51448;51.660;5.824;2023-04-03T14:35:24;6.70;;;1.13;;
60502;SDS011;51448;51.660;5.824;2023-04-03T14:37:54;3.97;;;1.17;;
60502;SDS011;51448;51.660;5.824;2023-04-03T14:40:23;3.50;;;1.05;;
60502;SDS011;51448;51.660;5.824;2023-04-03T14:45:22;3.60;;;1.23;;
60502;SDS011;51448;51.660;5.824;2023-04-03T14:47:52;3.30;;;1.00;;
60502;SDS011;51448;51.660;5.824;2023-04-03T14:52:54;3.80;;;1.10;;
60502;SDS011;51448;51.660;5.824;2023-04-03T14:55:26;3.33;;;1.10;;
60502;SDS011;51448;51.660;5.824;2023-04-03T14:57:53;4.53;;;1.30;;
60502;SDS011;51448;51.660;5.824;2023-04-03T15:00:22;3.45;;;1.08;;
60502;SDS011;51448;51.660;5.824;2023-04-03T15:02:50;4.05;;;1.20;;
60502;SDS011;51448;51.660;5.824;2023-04-03T15:05:18;7.45;;;1.67;;
60502;SDS011;51448;51.660;5.824;2023-04-03T15:07:52;6.20;;;1.30;;
60502;SDS011;51448;51.660;5.824;2023-04-03T15:10:24;4.25;;;1.30;;
60502;SDS011;51448;51.660;5.824;2023-04-03T15:12:55;5.22;;;1.35;;
60502;SDS011;51448;51.660;5.824;2023-04-03T15:15:26;5.22;;;1.40;;
60502;SDS011;51448;51.660;5.824;2023-04-03T15:17:59;4.68;;;1.40;;
60502;SDS011;51448;51.660;5.824;2023-04-03T15:20:27;4.57;;;1.35;;
60502;SDS011;51448;51.660;5.824;2023-04-03T15:22:58;4.50;;;1.60;;
60502;SDS011;51448;51.660;5.824;2023-04-03T15:25:28;3.83;;;1.40;;
60502;SDS011;51448;51.660;5.824;2023-04-03T15:27:57;4.93;;;1.30;;
60502;SDS011;51448;51.660;5.824;2023-04-03T15:30:25;4.40;;;1.30;;
60502;SDS011;51448;51.660;5.824;2023-04-03T15:32:53;4.00;;;1.20;;
60502;SDS011;51448;51.660;5.824;2023-04-03T15:35:20;6.47;;;1.30;;
60502;SDS011;51448;51.660;5.824;2023-04-03T15:37:48;3.72;;;1.20;;
60502;SDS011;51448;51.660;5.824;2023-04-03T15:40:16;3.95;;;1.27;;
60502;SDS011;51448;51.660;5.824;2023-04-03T15:42:44;5.55;;;1.40;;
60502;SDS011;51448;51.660;5.824;2023-04-03T15:45:11;3.63;;;1.05;;
60502;SDS011;51448;51.660;5.824;2023-04-03T15:47:39;5.78;;;1.10;;
60502;SDS011;51448;51.660;5.824;2023-04-03T15:50:08;4.70;;;1.10;;
60502;SDS011;51448;51.660;5.824;2023-04-03T15:52:36;5.03;;;1.15;;
60502;SDS011;51448;51.660;5.824;2023-04-03T15:55:04;7.40;;;1.50;;
60502;SDS011;51448;51.660;5.824;2023-04-03T15:57:35;5.53;;;1.27;;
60502;SDS011;51448;51.660;5.824;2023-04-03T16:00:07;4.05;;;1.20;;
60502;SDS011;51448;51.660;5.824;2023-04-03T16:02:36;4.03;;;1.20;;
60502;SDS011;51448;51.660;5.824;2023-04-03T16:05:04;5.28;;;1.33;;
60502;SDS011;51448;51.660;5.824;2023-04-03T16:07:36;6.63;;;1.40;;
60502;SDS011;51448;51.660;5.824;2023-04-03T16:10:07;4.97;;;1.33;;
60502;SDS011;51448;51.660;5.824;2023-04-03T16:12:40;3.70;;;1.13;;
60502;SDS011;51448;51.660;5.824;2023-04-03T16:15:08;5.93;;;1.35;;
60502;SDS011;51448;51.660;5.824;2023-04-03T16:17:37;3.65;;;1.25;;
60502;SDS011;51448;51.660;5.824;2023-04-03T16:22:37;4.95;;;1.10;;
60502;SDS011;51448;51.660;5.824;2023-04-03T16:25:11;5.28;;;1.45;;
60502;SDS011;51448;51.660;5.824;2023-04-03T16:27:39;4.63;;;1.37;;
60502;SDS011;51448;51.660;5.824;2023-04-03T16:30:07;4.65;;;1.48;;
60502;SDS011;51448;51.660;5.824;2023-04-03T16:32:36;4.95;;;1.20;;
60502;SDS011;51448;51.660;5.824;2023-04-03T16:35:06;5.05;;;1.13;;
60502;SDS011;51448;51.660;5.824;2023-04-03T16:37:34;5.13;;;1.20;;
60502;SDS011;51448;51.660;5.824;2023-04-03T16:40:09;3.75;;;1.17;;
60502;SDS011;51448;51.660;5.824;2023-04-03T16:42:40;4.03;;;1.30;;
60502;SDS011;51448;51.660;5.824;2023-04-03T16:45:07;4.75;;;1.50;;
60502;SDS011;51448;51.660;5.824;2023-04-03T16:47:35;6.82;;;1.40;;
60502;SDS011;51448;51.660;5.824;2023-04-03T16:50:03;6.72;;;1.83;;
60502;SDS011;51448;51.660;5.824;2023-04-03T16:52:32;6.50;;;1.60;;
60502;SDS011;51448;51.660;5.824;2023-04-03T16:55:00;5.57;;;1.42;;
60502;SDS011;51448;51.660;5.824;2023-04-03T16:57:28;5.60;;;1.38;;
60502;SDS011;51448;51.660;5.824;2023-04-03T16:59:56;4.60;;;1.33;;
60502;SDS011;51448;51.660;5.824;2023-04-03T17:02:23;4.55;;;1.50;;
60502;SDS011;51448;51.660;5.824;2023-04-03T17:04:52;4.38;;;1.40;;